createdAt,value
2019-03-30T00:00:29.855Z,39.90
2019-03-30T00:02:56.463Z,40.10
2019-03-30T00:05:22.832Z,40.00
2019-03-30T00:07:49.229Z,40.00
2019-03-30T00:10:16.798Z,40.10
2019-03-30T00:12:43.118Z,40.20
2019-03-30T00:15:09.702Z,40.30
2019-03-30T00:17:36.165Z,40.30
2019-03-30T00:20:03.954Z,40.40
2019-03-30T00:22:30.219Z,40.40
2019-03-30T00:24:56.515Z,40.50
2019-03-30T00:27:22.802Z,40.50
2019-03-30T00:29:49.191Z,40.60
2019-03-30T00:32:15.723Z,40.60
2019-03-30T00:34:42.009Z,40.60
2019-03-30T00:37:08.279Z,40.50
2019-03-30T00:39:35.016Z,40.70
2019-03-30T00:42:01.726Z,40.70
2019-03-30T00:44:28.022Z,40.70
2019-03-30T00:46:54.296Z,40.80
2019-03-30T00:49:20.937Z,40.80
2019-03-30T00:51:47.342Z,40.90
2019-03-30T00:54:13.701Z,41.00
2019-03-30T00:56:40.019Z,41.00
2019-03-30T00:59:06.483Z,41.20
2019-03-30T01:01:32.794Z,41.20
2019-03-30T01:03:59.087Z,41.20
2019-03-30T01:06:25.457Z,41.20
2019-03-30T01:08:51.729Z,41.30
2019-03-30T01:11:18.422Z,41.30
2019-03-30T01:13:44.895Z,41.40
2019-03-30T01:16:11.694Z,41.40
2019-03-30T01:18:38.435Z,41.50
2019-03-30T01:21:05.543Z,41.60
2019-03-30T01:23:32.234Z,41.60
2019-03-30T01:25:59.694Z,41.60
2019-03-30T01:28:25.997Z,41.50
2019-03-30T01:30:52.545Z,41.70
2019-03-30T01:33:19.047Z,41.70
2019-03-30T01:35:45.510Z,41.70
2019-03-30T01:38:12.100Z,41.70
2019-03-30T01:40:38.472Z,41.80
2019-03-30T01:43:04.858Z,41.80
2019-03-30T01:45:32.239Z,41.80
2019-03-30T01:47:58.522Z,41.80
2019-03-30T01:50:24.792Z,41.90
2019-03-30T01:52:51.276Z,42.00
2019-03-30T01:55:17.670Z,42.00
2019-03-30T01:57:44.338Z,42.10
2019-03-30T02:00:11.807Z,42.10
2019-03-30T02:02:38.539Z,42.00
2019-03-30T02:05:05.335Z,42.50
2019-03-30T02:07:31.914Z,42.10
2019-03-30T02:09:58.572Z,42.20
2019-03-30T02:12:24.838Z,42.20
2019-03-30T02:14:51.130Z,42.20
2019-03-30T02:17:20.153Z,42.20
2019-03-30T02:19:46.892Z,42.20
2019-03-30T02:22:13.250Z,42.40
2019-03-30T02:24:39.823Z,42.50
2019-03-30T02:27:06.095Z,42.50
2019-03-30T02:29:32.498Z,42.60
2019-03-30T02:31:58.964Z,42.50
2019-03-30T02:34:25.703Z,42.60
2019-03-30T02:36:52.017Z,42.70
2019-03-30T02:39:18.542Z,42.70
2019-03-30T02:41:45.095Z,42.80
2019-03-30T02:44:11.395Z,42.70
2019-03-30T02:46:38.962Z,42.80
2019-03-30T02:49:05.262Z,42.80
2019-03-30T02:51:31.660Z,42.80
2019-03-30T02:53:58.055Z,42.90
2019-03-30T02:56:24.435Z,43.00
2019-03-30T02:58:51.046Z,43.00
2019-03-30T03:01:17.436Z,43.10
2019-03-30T03:03:43.852Z,43.10
2019-03-30T03:06:10.305Z,43.10
2019-03-30T03:08:36.688Z,43.10
2019-03-30T03:11:03.155Z,43.10
2019-03-30T03:13:29.453Z,43.10
2019-03-30T03:15:55.823Z,43.10
2019-03-30T03:18:22.207Z,43.20
2019-03-30T03:21:06.114Z,43.20
2019-03-30T03:23:16.695Z,43.80
2019-03-30T03:25:43.155Z,43.30
2019-03-30T03:28:09.461Z,43.30
2019-03-30T03:30:36.100Z,43.40
2019-03-30T03:33:02.517Z,43.30
2019-03-30T03:35:28.941Z,43.50
2019-03-30T03:37:55.241Z,43.50
2019-03-30T03:40:21.601Z,43.50
2019-03-30T03:42:48.008Z,43.50
2019-03-30T03:45:14.479Z,43.50
2019-03-30T03:47:41.113Z,43.50
2019-03-30T03:50:11.292Z,43.60
2019-03-30T03:52:39.087Z,43.70
2019-03-30T03:55:05.558Z,43.60
2019-03-30T03:57:35.683Z,43.60
2019-03-30T04:00:03.194Z,43.70
2019-03-30T04:02:34.468Z,43.80
2019-03-30T04:05:01.643Z,43.80
2019-03-30T04:07:31.717Z,43.80
2019-03-30T04:09:59.209Z,43.80
2019-03-30T04:12:26.077Z,43.80
2019-03-30T04:14:52.580Z,43.90
2019-03-30T04:17:19.138Z,43.90
2019-03-30T04:19:45.428Z,43.90
2019-03-30T04:22:11.795Z,44.20
2019-03-30T04:24:38.086Z,44.00
2019-03-30T04:27:04.498Z,44.00
2019-03-30T04:29:30.898Z,44.10
2019-03-30T04:31:57.359Z,44.00
2019-03-30T04:34:23.645Z,44.10
2019-03-30T04:36:49.935Z,44.20
2019-03-30T04:39:16.327Z,44.20
2019-03-30T04:41:43.030Z,44.20
2019-03-30T04:44:09.768Z,44.30
2019-03-30T04:46:36.158Z,44.30
2019-03-30T04:49:02.939Z,44.20
2019-03-30T04:51:29.297Z,44.30
2019-03-30T04:53:55.679Z,44.70
2019-03-30T04:56:22.230Z,44.30
2019-03-30T04:58:48.560Z,44.30
2019-03-30T05:01:14.949Z,44.40
2019-03-30T05:03:42.368Z,44.40
2019-03-30T05:06:08.746Z,44.40
2019-03-30T05:08:35.322Z,44.50
2019-03-30T05:11:01.673Z,44.50
2019-03-30T05:13:28.073Z,44.40
2019-03-30T05:15:55.424Z,44.50
2019-03-30T05:18:21.720Z,44.60
2019-03-30T05:20:48.095Z,44.60
2019-03-30T05:23:14.366Z,44.80
2019-03-30T05:25:40.972Z,44.80
2019-03-30T05:28:07.378Z,44.90
2019-03-30T05:30:33.666Z,45.00
2019-03-30T05:33:06.005Z,45.00
2019-03-30T05:35:28.138Z,45.10
2019-03-30T05:37:55.413Z,45.10
2019-03-30T05:40:21.815Z,45.10
2019-03-30T05:42:48.089Z,45.10
2019-03-30T05:45:14.386Z,45.20
2019-03-30T05:47:40.682Z,45.80
2019-03-30T05:50:07.358Z,45.40
2019-03-30T05:52:35.647Z,45.50
2019-03-30T05:55:02.049Z,45.50
2019-03-30T05:57:28.706Z,45.50
2019-03-30T05:59:56.031Z,45.50
2019-03-30T06:02:22.622Z,45.50
2019-03-30T06:04:49.031Z,45.60
2019-03-30T06:07:15.309Z,45.60
2019-03-30T06:09:41.595Z,45.70
2019-03-30T06:12:08.220Z,45.90
2019-03-30T06:14:34.524Z,45.80
2019-03-30T06:17:01.117Z,45.90
2019-03-30T06:19:27.611Z,46.00
2019-03-30T06:21:54.083Z,46.10
2019-03-30T06:24:20.467Z,46.10
2019-03-30T06:26:46.927Z,46.30
2019-03-30T06:29:13.327Z,46.30
2019-03-30T06:31:39.594Z,46.40
2019-03-30T06:34:05.895Z,46.40
2019-03-30T06:36:32.170Z,46.50
2019-03-30T06:38:58.558Z,46.70
2019-03-30T06:41:24.980Z,46.70
2019-03-30T06:43:51.385Z,46.90
2019-03-30T06:46:17.752Z,47.10
2019-03-30T06:48:44.111Z,47.60
2019-03-30T06:51:10.409Z,47.80
2019-03-30T06:53:36.803Z,47.90
2019-03-30T06:56:03.716Z,48.30
2019-03-30T06:58:30.794Z,48.90
2019-03-30T07:00:57.635Z,48.60
2019-03-30T07:03:24.009Z,49.00
2019-03-30T07:05:52.029Z,49.00
2019-03-30T07:08:18.382Z,49.00
2019-03-30T07:10:45.276Z,48.50
2019-03-30T07:13:12.741Z,48.60
2019-03-30T07:15:42.947Z,49.80
2019-03-30T07:18:10.315Z,49.60
2019-03-30T07:20:36.990Z,49.40
2019-03-30T07:23:11.858Z,49.00
2019-03-30T07:25:31.893Z,49.00
2019-03-30T07:27:58.243Z,49.30
2019-03-30T07:30:24.864Z,49.50
2019-03-30T07:32:52.101Z,49.30
2019-03-30T07:35:18.584Z,49.20
2019-03-30T07:37:46.053Z,49.40
2019-03-30T07:40:12.503Z,50.10
2019-03-30T07:42:38.871Z,49.50
2019-03-30T07:45:05.588Z,50.70
2019-03-30T07:47:32.133Z,51.00
2019-03-30T07:49:58.518Z,50.90
2019-03-30T07:52:25.094Z,50.70
2019-03-30T07:54:51.738Z,50.40
2019-03-30T07:57:18.086Z,50.00
2019-03-30T07:59:44.442Z,50.00
2019-03-30T08:02:10.802Z,49.80
2019-03-30T08:04:37.108Z,49.90
2019-03-30T08:07:03.824Z,49.80
2019-03-30T08:09:30.207Z,50.50
2019-03-30T08:11:56.835Z,50.00
2019-03-30T08:14:23.430Z,50.10
2019-03-30T08:16:50.061Z,50.40
2019-03-30T08:19:16.698Z,50.60
2019-03-30T08:21:44.095Z,50.30
2019-03-30T08:24:10.350Z,50.30
2019-03-30T08:26:37.092Z,50.20
2019-03-30T08:29:03.870Z,50.20
2019-03-30T08:31:30.188Z,50.10
2019-03-30T08:33:56.508Z,50.20
2019-03-30T08:36:23.172Z,50.30
2019-03-30T08:38:49.523Z,51.10
2019-03-30T08:41:15.791Z,53.10
2019-03-30T08:43:42.455Z,55.80
2019-03-30T08:46:09.006Z,58.20
2019-03-30T08:48:35.295Z,59.60
2019-03-30T08:51:01.880Z,59.90
2019-03-30T08:53:28.167Z,59.90
2019-03-30T08:55:54.551Z,58.90
2019-03-30T08:58:20.940Z,57.10
2019-03-30T09:00:47.587Z,55.30
2019-03-30T09:03:13.974Z,53.80
2019-03-30T09:05:41.565Z,51.30
2019-03-30T09:08:21.496Z,49.50
2019-03-30T09:10:47.769Z,47.90
2019-03-30T09:13:14.283Z,46.40
2019-03-30T09:15:40.830Z,44.10
2019-03-30T09:18:07.095Z,43.00
2019-03-30T09:20:33.403Z,41.90
2019-03-30T09:22:59.763Z,40.20
2019-03-30T09:25:26.250Z,38.90
2019-03-30T09:27:52.804Z,38.00
2019-03-30T09:30:19.818Z,37.00
2019-03-30T09:32:46.086Z,36.20
2019-03-30T09:35:12.678Z,35.40
2019-03-30T09:37:39.030Z,33.50
2019-03-30T09:40:07.615Z,32.30
2019-03-30T09:42:33.994Z,29.80
2019-03-30T09:45:00.386Z,28.20
2019-03-30T09:47:26.746Z,28.40
2019-03-30T09:49:53.023Z,28.60
2019-03-30T09:52:19.406Z,28.90
2019-03-30T09:54:45.675Z,28.80
2019-03-30T09:57:12.078Z,28.30
2019-03-30T09:59:38.722Z,28.50
2019-03-30T10:02:05.318Z,27.80
2019-03-30T10:04:31.773Z,27.40
2019-03-30T10:06:58.076Z,27.60
2019-03-30T10:09:24.340Z,27.50
2019-03-30T10:11:50.625Z,27.30
2019-03-30T10:14:17.195Z,26.80
2019-03-30T10:16:43.819Z,26.40
2019-03-30T10:19:10.234Z,26.10
2019-03-30T10:21:36.531Z,24.80
2019-03-30T10:24:03.311Z,25.50
2019-03-30T10:26:29.959Z,25.60
2019-03-30T10:28:56.309Z,25.00
2019-03-30T10:31:22.932Z,24.90
2019-03-30T10:33:49.192Z,24.30
2019-03-30T10:36:15.583Z,24.40
2019-03-30T10:38:41.888Z,24.80
2019-03-30T10:41:09.271Z,24.50
2019-03-30T10:43:35.733Z,24.50
2019-03-30T10:46:02.569Z,24.60
2019-03-30T10:48:28.838Z,24.20
2019-03-30T10:50:55.229Z,24.30
2019-03-30T10:53:21.503Z,24.30
2019-03-30T10:55:47.793Z,24.40
2019-03-30T10:58:14.075Z,23.70
2019-03-30T11:00:41.848Z,23.80
2019-03-30T11:03:08.331Z,23.20
2019-03-30T11:05:35.063Z,23.30
2019-03-30T11:08:01.326Z,23.10
2019-03-30T11:10:27.603Z,23.30
2019-03-30T11:12:54.346Z,23.40
2019-03-30T11:15:20.717Z,22.60
2019-03-30T11:17:46.999Z,21.60
2019-03-30T11:20:13.463Z,22.00
2019-03-30T11:22:39.892Z,21.80
2019-03-30T11:25:08.678Z,22.30
2019-03-30T11:27:34.826Z,22.40
2019-03-30T11:30:01.202Z,22.70
2019-03-30T11:32:27.617Z,22.80
2019-03-30T11:34:53.998Z,22.90
2019-03-30T11:37:20.479Z,22.80
2019-03-30T11:39:46.756Z,22.40
2019-03-30T11:42:13.039Z,22.60
2019-03-30T11:44:39.299Z,22.60
2019-03-30T11:47:05.594Z,22.40
2019-03-30T11:49:31.959Z,22.20
2019-03-30T11:51:58.615Z,22.00
2019-03-30T11:54:24.880Z,22.20
2019-03-30T11:56:51.586Z,22.30
2019-03-30T11:59:18.243Z,22.30
2019-03-30T12:01:45.679Z,22.20
2019-03-30T12:04:11.948Z,22.00
2019-03-30T12:06:38.347Z,22.10
2019-03-30T12:09:07.254Z,21.80
2019-03-30T12:11:33.898Z,21.70
2019-03-30T12:14:00.271Z,21.80
2019-03-30T12:16:26.963Z,21.70
2019-03-30T12:18:53.224Z,21.80
2019-03-30T12:21:19.610Z,21.80
2019-03-30T12:23:45.996Z,21.70
2019-03-30T12:26:12.363Z,21.60
2019-03-30T12:28:38.762Z,21.70
2019-03-30T12:31:05.078Z,21.20
2019-03-30T12:33:31.391Z,21.20
2019-03-30T12:35:57.856Z,21.60
2019-03-30T12:38:24.249Z,21.60
2019-03-30T12:40:51.005Z,21.70
2019-03-30T12:43:17.403Z,21.90
2019-03-30T12:45:44.138Z,22.10
2019-03-30T12:48:10.481Z,22.50
2019-03-30T12:50:36.839Z,22.60
2019-03-30T12:53:03.343Z,22.60
2019-03-30T12:55:29.630Z,22.70
2019-03-30T12:57:56.222Z,22.50
2019-03-30T13:00:22.532Z,22.30
2019-03-30T13:02:49.202Z,22.30
2019-03-30T13:05:15.468Z,22.00
2019-03-30T13:07:42.172Z,22.20
2019-03-30T13:10:09.010Z,22.10
2019-03-30T13:12:35.302Z,22.30
2019-03-30T13:15:01.678Z,22.20
2019-03-30T13:17:27.971Z,22.00
2019-03-30T13:19:54.514Z,21.90
2019-03-30T13:22:20.927Z,22.10
2019-03-30T13:24:47.488Z,22.20
2019-03-30T13:27:13.777Z,22.10
2019-03-30T13:29:40.455Z,22.10
2019-03-30T13:32:07.081Z,22.10
2019-03-30T13:34:33.436Z,22.00
2019-03-30T13:37:09.603Z,22.10
2019-03-30T13:39:35.954Z,22.00
2019-03-30T13:42:02.246Z,22.10
2019-03-30T13:44:28.515Z,22.20
2019-03-30T13:46:54.815Z,22.10
2019-03-30T13:49:21.187Z,22.50
2019-03-30T13:51:47.667Z,22.00
2019-03-30T13:54:13.923Z,22.00
2019-03-30T13:56:40.199Z,22.10
2019-03-30T13:59:06.610Z,22.20
2019-03-30T14:01:32.935Z,22.20
2019-03-30T14:04:00.333Z,22.10
2019-03-30T14:06:26.615Z,22.20
2019-03-30T14:08:54.016Z,22.10
2019-03-30T14:11:20.674Z,22.20
2019-03-30T14:13:46.964Z,22.40
2019-03-30T14:16:13.226Z,22.60
2019-03-30T14:18:39.524Z,22.80
2019-03-30T14:21:06.213Z,22.80
2019-03-30T14:23:32.956Z,22.80
2019-03-30T14:25:59.318Z,22.70
2019-03-30T14:28:25.609Z,22.60
2019-03-30T14:30:51.879Z,22.50
2019-03-30T14:33:18.275Z,22.40
2019-03-30T14:35:44.825Z,22.60
2019-03-30T14:38:11.120Z,22.40
2019-03-30T14:40:37.390Z,22.40
2019-03-30T14:43:03.787Z,21.90
2019-03-30T14:45:30.244Z,22.10
2019-03-30T14:47:58.034Z,22.10
2019-03-30T14:50:24.568Z,22.20
2019-03-30T14:52:50.872Z,22.30
2019-03-30T14:55:18.561Z,22.30
2019-03-30T14:57:45.150Z,22.30
2019-03-30T15:00:11.878Z,22.30
2019-03-30T15:02:38.662Z,22.30
2019-03-30T15:05:29.883Z,22.20
2019-03-30T15:07:56.584Z,22.00
2019-03-30T15:10:23.129Z,22.20
2019-03-30T15:12:49.410Z,22.20
2019-03-30T15:15:16.231Z,22.20
2019-03-30T15:17:42.637Z,22.30
2019-03-30T15:20:10.271Z,22.30
2019-03-30T15:22:37.099Z,22.40
2019-03-30T15:25:06.139Z,22.30
2019-03-30T15:27:32.445Z,22.20
2019-03-30T15:29:59.022Z,22.00
2019-03-30T15:32:25.450Z,22.20
2019-03-30T15:34:52.203Z,22.30
2019-03-30T15:37:18.503Z,22.30
2019-03-30T15:39:44.858Z,22.50
2019-03-30T15:42:11.335Z,22.60
2019-03-30T15:44:37.911Z,22.60
2019-03-30T15:47:04.279Z,22.50
2019-03-30T15:49:31.010Z,22.40
2019-03-30T15:51:57.374Z,22.40
2019-03-30T15:54:23.762Z,22.50
2019-03-30T15:56:50.041Z,22.60
2019-03-30T15:59:16.430Z,22.60
2019-03-30T16:01:43.170Z,22.70
2019-03-30T16:04:09.470Z,22.90
2019-03-30T16:06:35.839Z,23.00
2019-03-30T16:09:04.843Z,23.30
2019-03-30T16:11:31.751Z,23.30
2019-03-30T16:13:58.044Z,23.30
2019-03-30T16:16:24.420Z,23.30
2019-03-30T16:18:50.847Z,23.50
2019-03-30T16:21:17.206Z,23.50
2019-03-30T16:23:43.692Z,23.40
2019-03-30T16:26:10.050Z,23.40
2019-03-30T16:28:36.523Z,23.30
2019-03-30T16:31:03.441Z,23.30
2019-03-30T16:33:30.192Z,23.30
2019-03-30T16:35:56.807Z,23.30
2019-03-30T16:38:23.295Z,23.40
2019-03-30T16:40:49.904Z,23.50
2019-03-30T16:43:16.296Z,23.70
2019-03-30T16:45:42.848Z,23.70
2019-03-30T16:48:09.133Z,23.90
2019-03-30T16:50:35.490Z,23.90
2019-03-30T16:53:01.779Z,24.00
2019-03-30T16:55:28.147Z,24.00
2019-03-30T16:57:54.804Z,24.40
2019-03-30T17:00:21.184Z,24.10
2019-03-30T17:02:47.588Z,24.10
2019-03-30T17:05:14.137Z,24.10
2019-03-30T17:07:40.758Z,24.10
2019-03-30T17:10:07.434Z,24.10
2019-03-30T17:12:35.271Z,24.00
2019-03-30T17:15:02.960Z,24.20
2019-03-30T17:17:29.734Z,24.20
2019-03-30T17:19:56.103Z,24.30
2019-03-30T17:22:22.383Z,24.30
2019-03-30T17:24:48.871Z,24.40
2019-03-30T17:27:15.147Z,24.50
2019-03-30T17:29:41.811Z,24.50
2019-03-30T17:32:08.539Z,24.50
2019-03-30T17:34:35.088Z,24.50
2019-03-30T17:37:01.438Z,24.60
2019-03-30T17:39:27.722Z,24.60
2019-03-30T17:41:54.309Z,24.70
2019-03-30T17:44:20.606Z,24.70
2019-03-30T17:46:47.054Z,24.80
2019-03-30T17:49:13.351Z,24.90
2019-03-30T17:51:39.939Z,25.00
2019-03-30T17:54:06.247Z,25.10
2019-03-30T17:56:32.504Z,25.30
2019-03-30T17:58:59.213Z,25.30
2019-03-30T18:01:25.682Z,25.50
2019-03-30T18:03:52.054Z,25.50
2019-03-30T18:06:18.694Z,25.60
2019-03-30T18:08:44.981Z,25.70
2019-03-30T18:11:11.550Z,25.80
2019-03-30T18:13:38.236Z,25.90
2019-03-30T18:16:04.989Z,26.10
2019-03-30T18:18:32.382Z,26.20
2019-03-30T18:20:58.655Z,26.30
2019-03-30T18:23:25.323Z,26.60
2019-03-30T18:25:51.583Z,26.60
2019-03-30T18:28:26.968Z,26.70
2019-03-30T18:30:46.463Z,26.90
2019-03-30T18:33:13.108Z,27.00
2019-03-30T18:35:39.884Z,27.10
2019-03-30T18:38:06.578Z,27.30
2019-03-30T18:40:33.386Z,27.40
2019-03-30T18:43:01.350Z,27.50
2019-03-30T18:45:28.233Z,27.60
2019-03-30T18:48:15.048Z,27.70
2019-03-30T18:50:42.234Z,27.80
2019-03-30T18:53:09.197Z,27.90
2019-03-30T18:55:35.503Z,28.00
2019-03-30T18:58:01.974Z,28.10
2019-03-30T19:00:28.368Z,28.30
2019-03-30T19:02:54.867Z,28.40
2019-03-30T19:05:21.218Z,28.50
2019-03-30T19:07:47.873Z,28.60
2019-03-30T19:10:14.251Z,28.60
2019-03-30T19:12:40.617Z,28.80
2019-03-30T19:15:07.125Z,28.90
2019-03-30T19:17:33.582Z,28.90
2019-03-30T19:20:01.328Z,29.10
2019-03-30T19:22:29.006Z,29.20
2019-03-30T19:24:55.623Z,29.30
2019-03-30T19:27:21.886Z,29.40
2019-03-30T19:29:48.170Z,29.40
2019-03-30T19:32:14.444Z,29.50
2019-03-30T19:34:41.179Z,29.60
2019-03-30T19:37:07.473Z,29.70
2019-03-30T19:39:33.846Z,29.80
2019-03-30T19:42:00.466Z,29.90
2019-03-30T19:44:26.764Z,30.00
2019-03-30T19:46:53.314Z,30.00
2019-03-30T19:49:19.606Z,30.10
2019-03-30T19:51:45.878Z,30.20
2019-03-30T19:54:12.258Z,30.40
2019-03-30T19:56:38.851Z,30.30
2019-03-30T19:59:10.883Z,30.50
2019-03-30T20:01:35.230Z,30.50
2019-03-30T20:04:01.975Z,30.60
2019-03-30T20:06:28.575Z,30.70
2019-03-30T20:08:54.988Z,31.20
2019-03-30T20:11:21.323Z,30.90
2019-03-30T20:13:47.610Z,31.00
2019-03-30T20:16:13.970Z,31.00
2019-03-30T20:18:40.271Z,31.60
2019-03-30T20:21:06.563Z,31.20
2019-03-30T20:23:33.178Z,31.30
2019-03-30T20:25:59.964Z,31.40
2019-03-30T20:28:26.359Z,31.60
2019-03-30T20:30:52.922Z,31.60
2019-03-30T20:33:19.578Z,31.70
2019-03-30T20:35:46.261Z,31.80
2019-03-30T20:38:12.526Z,32.00
2019-03-30T20:40:38.827Z,31.90
2019-03-30T20:43:05.379Z,32.10
2019-03-30T20:45:32.229Z,32.10
2019-03-30T20:47:58.507Z,32.20
2019-03-30T20:50:24.791Z,32.30
2019-03-30T20:52:51.551Z,32.40
2019-03-30T20:55:18.293Z,32.40
2019-03-30T20:57:44.663Z,32.50
2019-03-30T21:00:11.548Z,32.60
2019-03-30T21:02:37.942Z,32.80
2019-03-30T21:05:05.647Z,32.90
2019-03-30T21:07:32.195Z,32.90
2019-03-30T21:09:59.574Z,32.90
2019-03-30T21:12:25.838Z,33.10
2019-03-30T21:14:52.142Z,33.20
2019-03-30T21:17:18.764Z,33.30
2019-03-30T21:19:45.491Z,33.30
2019-03-30T21:22:11.766Z,33.40
2019-03-30T21:24:38.434Z,33.40
2019-03-30T21:27:04.796Z,33.50
2019-03-30T21:29:31.437Z,33.70
2019-03-30T21:31:57.883Z,33.80
2019-03-30T21:34:24.375Z,33.90
2019-03-30T21:36:50.847Z,34.00
2019-03-30T21:39:17.217Z,34.00
2019-03-30T21:41:43.596Z,34.20
2019-03-30T21:44:21.326Z,34.20
2019-03-30T21:46:38.706Z,34.30
2019-03-30T21:49:04.974Z,34.30
2019-03-30T21:51:31.762Z,34.40
2019-03-30T21:53:58.118Z,34.50
2019-03-30T21:56:24.626Z,34.50
2019-03-30T21:58:52.271Z,34.50
2019-03-30T22:01:19.822Z,34.70
2019-03-30T22:03:46.543Z,34.70
2019-03-30T22:06:13.150Z,34.80
2019-03-30T22:08:39.511Z,35.00
2019-03-30T22:11:05.815Z,35.00
2019-03-30T22:13:32.183Z,35.10
2019-03-30T22:15:58.868Z,35.20
2019-03-30T22:18:25.261Z,35.40
2019-03-30T22:20:51.621Z,35.30
2019-03-30T22:23:18.102Z,35.30
2019-03-30T22:25:44.467Z,35.50
2019-03-30T22:28:11.027Z,35.60
2019-03-30T22:30:37.396Z,35.60
2019-03-30T22:33:03.892Z,35.70
2019-03-30T22:35:30.275Z,35.80
2019-03-30T22:37:56.666Z,35.90
2019-03-30T22:40:23.042Z,36.00
2019-03-30T22:42:49.731Z,35.90
2019-03-30T22:45:16.094Z,36.00
2019-03-30T22:47:42.703Z,36.00
2019-03-30T22:50:09.461Z,36.10
2019-03-30T22:52:35.763Z,36.30
2019-03-30T22:55:04.440Z,36.40
2019-03-30T22:57:30.711Z,36.40
2019-03-30T22:59:57.022Z,36.40
2019-03-30T23:02:23.895Z,36.50
2019-03-30T23:04:50.494Z,36.60
2019-03-30T23:07:16.771Z,36.80
2019-03-30T23:09:43.471Z,36.80
2019-03-30T23:12:09.933Z,36.90
2019-03-30T23:14:36.323Z,36.90
2019-03-30T23:17:03.093Z,37.00
2019-03-30T23:19:29.478Z,37.00
2019-03-30T23:21:55.824Z,37.00
2019-03-30T23:24:22.206Z,37.10
2019-03-30T23:26:48.929Z,37.20
2019-03-30T23:29:15.683Z,37.20
2019-03-30T23:31:42.255Z,37.30
2019-03-30T23:34:08.835Z,37.40
2019-03-30T23:36:35.563Z,37.40
2019-03-30T23:39:05.022Z,37.50
2019-03-30T23:41:31.286Z,37.50
2019-03-30T23:43:57.953Z,37.60
2019-03-30T23:46:24.219Z,37.70
2019-03-30T23:48:50.487Z,37.80
2019-03-30T23:51:16.879Z,37.80
2019-03-30T23:53:43.493Z,37.80
2019-03-30T23:56:20.471Z,37.90
2019-03-30T23:58:47.739Z,38.00
